sensor_id;sensor_type;location;lat;lon;timestamp;pressure;altitude;pressure_sealevel;temperature;humidity
44351;BME280;62766;62.622;17.912;2023-04-07T00:00:06;102302.97;;;2.49;66.15
44351;BME280;62766;62.622;17.912;2023-04-07T00:02:35;102299.64;;;2.58;66.09
44351;BME280;62766;62.622;17.912;2023-04-07T00:05:04;102294.13;;;2.46;66.00
44351;BME280;62766;62.622;17.912;2023-04-07T00:07:32;102292.18;;;2.60;65.90
44351;BME280;62766;62.622;17.912;2023-04-07T00:10:01;102286.91;;;2.59;65.91
44351;BME280;62766;62.622;17.912;2023-04-07T00:12:29;102288.14;;;2.54;66.12
44351;BME280;62766;62.622;17.912;2023-04-07T00:14:59;102288.30;;;2.55;66.24
44351;BME280;62766;62.622;17.912;2023-04-07T00:17:28;102289.59;;;2.43;66.31
44351;BME280;62766;62.622;17.912;2023-04-07T00:19:58;102287.79;;;2.37;66.39
44351;BME280;62766;62.622;17.912;2023-04-07T00:22:27;102292.03;;;2.44;66.37
44351;BME280;62766;62.622;17.912;2023-04-07T00:24:56;102289.97;;;2.51;66.28
44351;BME280;62766;62.622;17.912;2023-04-07T00:27:24;102291.35;;;2.46;66.24
44351;BME280;62766;62.622;17.912;2023-04-07T00:29:52;102287.44;;;2.56;66.28
44351;BME280;62766;62.622;17.912;2023-04-07T00:32:21;102288.05;;;2.57;66.22
44351;BME280;62766;62.622;17.912;2023-04-07T00:34:49;102288.32;;;2.52;66.20
44351;BME280;62766;62.622;17.912;2023-04-07T00:37:18;102288.25;;;2.57;66.23
44351;BME280;62766;62.622;17.912;2023-04-07T00:39:46;102288.29;;;2.58;66.24
44351;BME280;62766;62.622;17.912;2023-04-07T00:42:15;102290.47;;;2.48;66.19
44351;BME280;62766;62.622;17.912;2023-04-07T00:44:43;102291.93;;;2.49;66.19
44351;BME280;62766;62.622;17.912;2023-04-07T00:47:12;102293.48;;;2.42;66.22
44351;BME280;62766;62.622;17.912;2023-04-07T00:49:42;102295.11;;;2.50;66.27
44351;BME280;62766;62.622;17.912;2023-04-07T00:52:11;102298.58;;;2.38;66.42
44351;BME280;62766;62.622;17.912;2023-04-07T00:54:41;102297.63;;;2.43;66.63
44351;BME280;62766;62.622;17.912;2023-04-07T00:57:09;102294.85;;;2.31;66.89
44351;BME280;62766;62.622;17.912;2023-04-07T00:59:37;102295.13;;;2.20;67.03
44351;BME280;62766;62.622;17.912;2023-04-07T01:02:10;102297.85;;;2.29;67.10
44351;BME280;62766;62.622;17.912;2023-04-07T01:04:46;102297.29;;;2.22;67.20
44351;BME280;62766;62.622;17.912;2023-04-07T01:07:22;102293.67;;;2.17;67.32
44351;BME280;62766;62.622;17.912;2023-04-07T01:09:55;102291.58;;;2.28;67.24
44351;BME280;62766;62.622;17.912;2023-04-07T01:12:31;102295.44;;;2.27;67.35
44351;BME280;62766;62.622;17.912;2023-04-07T01:15:06;102290.72;;;2.41;67.00
44351;BME280;62766;62.622;17.912;2023-04-07T01:17:42;102289.21;;;2.31;66.92
44351;BME280;62766;62.622;17.912;2023-04-07T01:20:15;102283.00;;;2.43;66.92
44351;BME280;62766;62.622;17.912;2023-04-07T01:22:46;102280.61;;;2.48;66.85
44351;BME280;62766;62.622;17.912;2023-04-07T01:25:28;102284.07;;;2.43;66.86
44351;BME280;62766;62.622;17.912;2023-04-07T01:28:14;102285.89;;;2.37;66.85
44351;BME280;62766;62.622;17.912;2023-04-07T01:30:48;102287.54;;;2.31;66.94
44351;BME280;62766;62.622;17.912;2023-04-07T01:33:19;102288.99;;;2.45;66.95
44351;BME280;62766;62.622;17.912;2023-04-07T01:35:48;102294.25;;;2.30;66.87
44351;BME280;62766;62.622;17.912;2023-04-07T01:38:17;102295.72;;;2.41;66.87
44351;BME280;62766;62.622;17.912;2023-04-07T01:40:47;102285.64;;;2.41;66.81
44351;BME280;62766;62.622;17.912;2023-04-07T01:43:17;102284.63;;;2.19;66.89
44351;BME280;62766;62.622;17.912;2023-04-07T01:45:46;102283.14;;;2.40;66.96
44351;BME280;62766;62.622;17.912;2023-04-07T01:48:14;102287.29;;;2.40;66.89
44351;BME280;62766;62.622;17.912;2023-04-07T01:50:45;102293.13;;;2.30;66.98
44351;BME280;62766;62.622;17.912;2023-04-07T01:53:15;102288.54;;;2.33;66.92
44351;BME280;62766;62.622;17.912;2023-04-07T01:55:43;102293.80;;;2.26;66.98
44351;BME280;62766;62.622;17.912;2023-04-07T01:58:11;102284.34;;;2.29;67.10
44351;BME280;62766;62.622;17.912;2023-04-07T02:00:40;102282.64;;;2.26;67.10
44351;BME280;62766;62.622;17.912;2023-04-07T02:03:13;102283.14;;;2.17;67.06
44351;BME280;62766;62.622;17.912;2023-04-07T02:05:42;102282.64;;;2.21;67.06
44351;BME280;62766;62.622;17.912;2023-04-07T02:08:11;102281.36;;;2.34;66.91
44351;BME280;62766;62.622;17.912;2023-04-07T02:10:40;102277.76;;;2.20;66.98
44351;BME280;62766;62.622;17.912;2023-04-07T02:13:14;102274.44;;;2.36;66.82
44351;BME280;62766;62.622;17.912;2023-04-07T02:15:43;102270.60;;;2.31;66.87
44351;BME280;62766;62.622;17.912;2023-04-07T02:18:14;102273.25;;;2.33;66.71
44351;BME280;62766;62.622;17.912;2023-04-07T02:20:44;102272.91;;;2.32;66.70
44351;BME280;62766;62.622;17.912;2023-04-07T02:23:13;102276.35;;;2.27;66.79
44351;BME280;62766;62.622;17.912;2023-04-07T02:25:42;102275.57;;;2.31;66.74
44351;BME280;62766;62.622;17.912;2023-04-07T02:28:10;102277.65;;;2.30;66.80
44351;BME280;62766;62.622;17.912;2023-04-07T02:30:39;102280.27;;;2.27;66.74
44351;BME280;62766;62.622;17.912;2023-04-07T02:33:07;102281.01;;;2.30;66.56
44351;BME280;62766;62.622;17.912;2023-04-07T02:35:36;102280.57;;;2.39;66.51
44351;BME280;62766;62.622;17.912;2023-04-07T02:38:04;102279.67;;;2.31;66.64
44351;BME280;62766;62.622;17.912;2023-04-07T02:40:33;102283.16;;;2.26;66.57
44351;BME280;62766;62.622;17.912;2023-04-07T02:43:01;102278.01;;;2.18;66.77
44351;BME280;62766;62.622;17.912;2023-04-07T02:45:30;102278.05;;;2.17;66.69
44351;BME280;62766;62.622;17.912;2023-04-07T02:47:59;102281.80;;;2.09;67.01
44351;BME280;62766;62.622;17.912;2023-04-07T02:50:28;102280.18;;;2.10;67.23
44351;BME280;62766;62.622;17.912;2023-04-07T02:52:57;102278.37;;;2.08;67.43
44351;BME280;62766;62.622;17.912;2023-04-07T02:55:27;102277.24;;;2.10;67.53
44351;BME280;62766;62.622;17.912;2023-04-07T02:57:55;102278.03;;;1.99;67.62
44351;BME280;62766;62.622;17.912;2023-04-07T03:00:24;102276.99;;;1.98;67.54
44351;BME280;62766;62.622;17.912;2023-04-07T03:02:52;102278.49;;;1.93;67.63
44351;BME280;62766;62.622;17.912;2023-04-07T03:05:21;102279.12;;;1.98;67.81
44351;BME280;62766;62.622;17.912;2023-04-07T03:07:49;102279.66;;;1.91;67.82
44351;BME280;62766;62.622;17.912;2023-04-07T03:10:18;102277.51;;;2.03;67.79
44351;BME280;62766;62.622;17.912;2023-04-07T03:12:46;102274.18;;;1.97;67.85
44351;BME280;62766;62.622;17.912;2023-04-07T03:15:14;102271.49;;;1.97;67.85
44351;BME280;62766;62.622;17.912;2023-04-07T03:17:43;102270.86;;;1.93;67.78
44351;BME280;62766;62.622;17.912;2023-04-07T03:20:11;102274.42;;;1.96;67.72
44351;BME280;62766;62.622;17.912;2023-04-07T03:22:40;102277.77;;;2.01;67.69
44351;BME280;62766;62.622;17.912;2023-04-07T03:25:09;102279.27;;;2.06;67.62
44351;BME280;62766;62.622;17.912;2023-04-07T03:27:37;102280.46;;;2.04;67.73
44351;BME280;62766;62.622;17.912;2023-04-07T03:30:06;102280.26;;;1.88;68.05
44351;BME280;62766;62.622;17.912;2023-04-07T03:32:35;102282.78;;;1.81;68.21
44351;BME280;62766;62.622;17.912;2023-04-07T03:35:04;102281.27;;;1.94;68.16
44351;BME280;62766;62.622;17.912;2023-04-07T03:37:32;102284.04;;;2.02;68.11
44351;BME280;62766;62.622;17.912;2023-04-07T03:40:01;102281.51;;;1.93;67.98
44351;BME280;62766;62.622;17.912;2023-04-07T03:42:29;102285.35;;;1.95;67.98
44351;BME280;62766;62.622;17.912;2023-04-07T03:44:58;102286.50;;;1.96;67.70
44351;BME280;62766;62.622;17.912;2023-04-07T03:47:28;102288.59;;;1.88;67.69
44351;BME280;62766;62.622;17.912;2023-04-07T03:49:57;102285.02;;;1.91;67.57
44351;BME280;62766;62.622;17.912;2023-04-07T03:52:25;102286.09;;;1.96;67.38
44351;BME280;62766;62.622;17.912;2023-04-07T03:54:53;102289.24;;;1.96;67.24
44351;BME280;62766;62.622;17.912;2023-04-07T03:57:22;102292.51;;;1.92;66.91
44351;BME280;62766;62.622;17.912;2023-04-07T03:59:50;102295.98;;;1.94;66.75
44351;BME280;62766;62.622;17.912;2023-04-07T04:03:18;102294.89;;;1.86;66.27
44351;BME280;62766;62.622;17.912;2023-04-07T04:05:46;102298.64;;;1.91;65.71
44351;BME280;62766;62.622;17.912;2023-04-07T04:08:15;102298.56;;;1.92;65.63
44351;BME280;62766;62.622;17.912;2023-04-07T04:10:43;102299.66;;;1.87;65.48
44351;BME280;62766;62.622;17.912;2023-04-07T04:13:12;102295.94;;;1.92;65.19
44351;BME280;62766;62.622;17.912;2023-04-07T04:15:40;102297.54;;;2.01;65.37
44351;BME280;62766;62.622;17.912;2023-04-07T04:18:09;102300.00;;;2.02;65.19
44351;BME280;62766;62.622;17.912;2023-04-07T04:20:38;102301.31;;;2.04;65.19
44351;BME280;62766;62.622;17.912;2023-04-07T04:23:06;102298.36;;;1.94;65.20
44351;BME280;62766;62.622;17.912;2023-04-07T04:25:34;102301.92;;;1.99;65.02
44351;BME280;62766;62.622;17.912;2023-04-07T04:28:03;102301.54;;;2.08;64.46
44351;BME280;62766;62.622;17.912;2023-04-07T04:30:31;102302.71;;;2.09;64.44
44351;BME280;62766;62.622;17.912;2023-04-07T04:33:00;102302.50;;;2.01;64.39
44351;BME280;62766;62.622;17.912;2023-04-07T04:35:28;102299.90;;;2.08;64.58
44351;BME280;62766;62.622;17.912;2023-04-07T04:37:57;102300.22;;;2.04;64.48
44351;BME280;62766;62.622;17.912;2023-04-07T04:40:25;102300.65;;;2.07;64.02
44351;BME280;62766;62.622;17.912;2023-04-07T04:42:53;102302.17;;;2.04;63.90
44351;BME280;62766;62.622;17.912;2023-04-07T04:45:22;102301.21;;;1.96;63.80
44351;BME280;62766;62.622;17.912;2023-04-07T04:47:50;102301.90;;;2.09;63.24
44351;BME280;62766;62.622;17.912;2023-04-07T04:50:19;102298.67;;;1.91;63.17
44351;BME280;62766;62.622;17.912;2023-04-07T04:52:47;102292.27;;;1.95;63.17
44351;BME280;62766;62.622;17.912;2023-04-07T04:55:16;102291.62;;;1.91;62.86
44351;BME280;62766;62.622;17.912;2023-04-07T04:57:44;102284.86;;;1.95;62.38
44351;BME280;62766;62.622;17.912;2023-04-07T05:00:14;102285.99;;;1.99;62.26
44351;BME280;62766;62.622;17.912;2023-04-07T05:02:43;102295.36;;;1.91;61.96
44351;BME280;62766;62.622;17.912;2023-04-07T05:05:12;102296.02;;;2.07;61.99
44351;BME280;62766;62.622;17.912;2023-04-07T05:07:42;102295.44;;;2.05;61.81
44351;BME280;62766;62.622;17.912;2023-04-07T05:10:10;102299.34;;;2.07;61.90
44351;BME280;62766;62.622;17.912;2023-04-07T05:12:39;102296.46;;;2.10;61.91
44351;BME280;62766;62.622;17.912;2023-04-07T05:15:08;102293.13;;;2.12;61.96
44351;BME280;62766;62.622;17.912;2023-04-07T05:17:36;102293.48;;;1.96;62.45
44351;BME280;62766;62.622;17.912;2023-04-07T05:20:07;102296.54;;;2.02;62.35
44351;BME280;62766;62.622;17.912;2023-04-07T05:22:36;102297.57;;;2.08;62.20
44351;BME280;62766;62.622;17.912;2023-04-07T05:25:05;102304.96;;;2.25;61.71
44351;BME280;62766;62.622;17.912;2023-04-07T05:27:35;102304.14;;;2.21;61.07
44351;BME280;62766;62.622;17.912;2023-04-07T05:30:04;102303.20;;;2.25;60.95
44351;BME280;62766;62.622;17.912;2023-04-07T05:32:33;102303.49;;;2.25;60.23
44351;BME280;62766;62.622;17.912;2023-04-07T05:35:02;102306.07;;;2.14;60.29
44351;BME280;62766;62.622;17.912;2023-04-07T05:37:30;102307.44;;;1.99;60.56
44351;BME280;62766;62.622;17.912;2023-04-07T05:39:59;102306.17;;;1.99;60.06
44351;BME280;62766;62.622;17.912;2023-04-07T05:42:27;102310.43;;;2.05;59.94
44351;BME280;62766;62.622;17.912;2023-04-07T05:44:56;102312.45;;;2.19;59.61
44351;BME280;62766;62.622;17.912;2023-04-07T05:47:24;102315.09;;;2.15;59.49
44351;BME280;62766;62.622;17.912;2023-04-07T05:49:53;102317.34;;;2.33;58.94
44351;BME280;62766;62.622;17.912;2023-04-07T05:52:21;102323.12;;;2.38;58.86
44351;BME280;62766;62.622;17.912;2023-04-07T05:54:50;102321.52;;;2.49;58.73
44351;BME280;62766;62.622;17.912;2023-04-07T05:57:18;102321.37;;;2.43;58.04
44351;BME280;62766;62.622;17.912;2023-04-07T05:59:47;102322.79;;;2.32;58.54
44351;BME280;62766;62.622;17.912;2023-04-07T06:02:15;102326.23;;;2.33;58.38
44351;BME280;62766;62.622;17.912;2023-04-07T06:04:44;102327.39;;;2.21;58.86
44351;BME280;62766;62.622;17.912;2023-04-07T06:07:13;102327.61;;;2.16;58.92
44351;BME280;62766;62.622;17.912;2023-04-07T06:09:41;102330.66;;;2.13;59.05
44351;BME280;62766;62.622;17.912;2023-04-07T06:12:09;102336.46;;;2.37;58.66
44351;BME280;62766;62.622;17.912;2023-04-07T06:14:38;102338.98;;;2.25;58.85
44351;BME280;62766;62.622;17.912;2023-04-07T06:17:06;102333.07;;;2.08;58.71
44351;BME280;62766;62.622;17.912;2023-04-07T06:19:34;102337.73;;;2.14;58.26
44351;BME280;62766;62.622;17.912;2023-04-07T06:22:03;102337.02;;;2.04;57.88
44351;BME280;62766;62.622;17.912;2023-04-07T06:24:31;102336.31;;;2.00;58.05
44351;BME280;62766;62.622;17.912;2023-04-07T06:27:00;102335.76;;;2.13;58.07
44351;BME280;62766;62.622;17.912;2023-04-07T06:29:28;102340.41;;;2.35;58.00
44351;BME280;62766;62.622;17.912;2023-04-07T06:31:57;102341.30;;;2.28;57.98
44351;BME280;62766;62.622;17.912;2023-04-07T06:34:25;102347.20;;;2.38;58.39
44351;BME280;62766;62.622;17.912;2023-04-07T06:36:54;102349.24;;;2.45;58.54
44351;BME280;62766;62.622;17.912;2023-04-07T06:39:24;102352.17;;;2.75;57.81
44351;BME280;62766;62.622;17.912;2023-04-07T06:41:54;102351.02;;;2.87;57.78
44351;BME280;62766;62.622;17.912;2023-04-07T06:44:23;102344.13;;;3.04;57.36
44351;BME280;62766;62.622;17.912;2023-04-07T06:46:51;102342.71;;;3.18;57.10
44351;BME280;62766;62.622;17.912;2023-04-07T06:49:20;102343.72;;;3.12;56.97
44351;BME280;62766;62.622;17.912;2023-04-07T06:51:48;102345.25;;;3.37;56.29
44351;BME280;62766;62.622;17.912;2023-04-07T06:54:17;102343.83;;;3.43;56.18
44351;BME280;62766;62.622;17.912;2023-04-07T06:56:45;102345.11;;;3.40;56.32
44351;BME280;62766;62.622;17.912;2023-04-07T06:59:15;102342.92;;;3.59;55.98
44351;BME280;62766;62.622;17.912;2023-04-07T07:01:44;102339.15;;;3.56;55.59
44351;BME280;62766;62.622;17.912;2023-04-07T07:04:13;102337.22;;;3.57;55.79
44351;BME280;62766;62.622;17.912;2023-04-07T07:06:42;102338.72;;;3.48;55.58
44351;BME280;62766;62.622;17.912;2023-04-07T07:09:11;102342.07;;;3.70;55.19
44351;BME280;62766;62.622;17.912;2023-04-07T07:11:39;102339.74;;;3.66;54.97
44351;BME280;62766;62.622;17.912;2023-04-07T07:14:08;102340.32;;;3.77;54.81
44351;BME280;62766;62.622;17.912;2023-04-07T07:16:36;102345.19;;;3.77;54.62
44351;BME280;62766;62.622;17.912;2023-04-07T07:19:05;102341.65;;;4.04;54.25
44351;BME280;62766;62.622;17.912;2023-04-07T07:21:33;102337.93;;;4.12;54.31
44351;BME280;62766;62.622;17.912;2023-04-07T07:24:02;102340.54;;;4.10;54.29
44351;BME280;62766;62.622;17.912;2023-04-07T07:26:30;102346.13;;;4.11;54.49
44351;BME280;62766;62.622;17.912;2023-04-07T07:28:59;102344.19;;;4.21;54.34
44351;BME280;62766;62.622;17.912;2023-04-07T07:31:27;102343.00;;;4.25;54.42
44351;BME280;62766;62.622;17.912;2023-04-07T07:33:56;102344.40;;;4.16;54.11
44351;BME280;62766;62.622;17.912;2023-04-07T07:36:24;102349.21;;;4.11;53.90
44351;BME280;62766;62.622;17.912;2023-04-07T07:38:52;102351.41;;;4.25;53.93
44351;BME280;62766;62.622;17.912;2023-04-07T07:41:21;102352.90;;;4.30;54.00
44351;BME280;62766;62.622;17.912;2023-04-07T07:43:49;102355.00;;;4.45;54.07
44351;BME280;62766;62.622;17.912;2023-04-07T07:46:18;102355.99;;;4.55;53.97
44351;BME280;62766;62.622;17.912;2023-04-07T07:48:46;102357.86;;;4.80;53.82
44351;BME280;62766;62.622;17.912;2023-04-07T07:51:15;102361.47;;;4.87;53.62
44351;BME280;62766;62.622;17.912;2023-04-07T07:53:43;102361.58;;;5.00;53.84
44351;BME280;62766;62.622;17.912;2023-04-07T07:56:12;102354.75;;;5.12;54.17
44351;BME280;62766;62.622;17.912;2023-04-07T07:58:40;102353.65;;;5.21;54.05
44351;BME280;62766;62.622;17.912;2023-04-07T08:01:08;102353.08;;;5.26;53.99
44351;BME280;62766;62.622;17.912;2023-04-07T08:03:37;102357.58;;;5.50;53.42
44351;BME280;62766;62.622;17.912;2023-04-07T08:06:05;102360.68;;;5.56;53.52
44351;BME280;62766;62.622;17.912;2023-04-07T08:08:33;102355.71;;;5.56;53.50
44351;BME280;62766;62.622;17.912;2023-04-07T08:11:02;102360.56;;;5.69;53.07
44351;BME280;62766;62.622;17.912;2023-04-07T08:13:30;102363.29;;;5.76;53.10
44351;BME280;62766;62.622;17.912;2023-04-07T08:15:59;102361.43;;;5.82;52.54
44351;BME280;62766;62.622;17.912;2023-04-07T08:18:27;102363.80;;;5.83;52.59
44351;BME280;62766;62.622;17.912;2023-04-07T08:20:56;102359.61;;;6.01;52.52
44351;BME280;62766;62.622;17.912;2023-04-07T08:23:24;102360.17;;;6.13;52.59
44351;BME280;62766;62.622;17.912;2023-04-07T08:25:52;102359.55;;;6.31;52.59
44351;BME280;62766;62.622;17.912;2023-04-07T08:28:21;102358.49;;;6.25;52.57
44351;BME280;62766;62.622;17.912;2023-04-07T08:30:49;102360.20;;;6.42;52.48
44351;BME280;62766;62.622;17.912;2023-04-07T08:33:17;102361.41;;;6.38;52.14
44351;BME280;62766;62.622;17.912;2023-04-07T08:35:46;102363.84;;;6.48;52.21
44351;BME280;62766;62.622;17.912;2023-04-07T08:38:15;102365.16;;;6.53;51.67
44351;BME280;62766;62.622;17.912;2023-04-07T08:40:43;102363.93;;;6.47;52.06
44351;BME280;62766;62.622;17.912;2023-04-07T08:43:12;102363.80;;;6.54;52.21
44351;BME280;62766;62.622;17.912;2023-04-07T08:45:42;102365.09;;;6.52;52.27
44351;BME280;62766;62.622;17.912;2023-04-07T08:48:15;102369.83;;;6.69;52.22
44351;BME280;62766;62.622;17.912;2023-04-07T08:50:44;102367.25;;;6.90;52.23
44351;BME280;62766;62.622;17.912;2023-04-07T08:53:17;102367.44;;;7.02;51.93
44351;BME280;62766;62.622;17.912;2023-04-07T08:55:47;102367.63;;;7.18;51.82
44351;BME280;62766;62.622;17.912;2023-04-07T08:58:15;102365.01;;;7.38;51.35
44351;BME280;62766;62.622;17.912;2023-04-07T09:00:45;102362.87;;;7.48;50.87
44351;BME280;62766;62.622;17.912;2023-04-07T09:03:15;102360.68;;;7.69;50.47
44351;BME280;62766;62.622;17.912;2023-04-07T09:05:44;102364.77;;;7.70;50.37
44351;BME280;62766;62.622;17.912;2023-04-07T09:08:12;102367.48;;;7.71;49.73
44351;BME280;62766;62.622;17.912;2023-04-07T09:10:40;102366.41;;;7.84;49.18
44351;BME280;62766;62.622;17.912;2023-04-07T09:13:09;102361.68;;;7.87;48.94
44351;BME280;62766;62.622;17.912;2023-04-07T09:15:38;102361.06;;;7.90;48.74
44351;BME280;62766;62.622;17.912;2023-04-07T09:18:06;102363.89;;;8.04;48.25
44351;BME280;62766;62.622;17.912;2023-04-07T09:21:06;102362.65;;;8.01;47.98
44351;BME280;62766;62.622;17.912;2023-04-07T09:23:39;102363.19;;;8.10;47.67
44351;BME280;62766;62.622;17.912;2023-04-07T09:26:25;102371.96;;;8.12;47.56
44351;BME280;62766;62.622;17.912;2023-04-07T09:28:56;102370.59;;;7.94;47.42
44351;BME280;62766;62.622;17.912;2023-04-07T09:31:46;102364.89;;;8.02;47.23
44351;BME280;62766;62.622;17.912;2023-04-07T09:34:24;102362.15;;;7.97;47.34
44351;BME280;62766;62.622;17.912;2023-04-07T09:36:53;102362.73;;;8.04;47.14
44351;BME280;62766;62.622;17.912;2023-04-07T09:39:21;102362.92;;;7.83;46.98
44351;BME280;62766;62.622;17.912;2023-04-07T09:41:50;102366.91;;;7.94;47.64
44351;BME280;62766;62.622;17.912;2023-04-07T09:44:18;102369.47;;;7.92;47.42
44351;BME280;62766;62.622;17.912;2023-04-07T09:46:48;102368.54;;;7.97;47.39
44351;BME280;62766;62.622;17.912;2023-04-07T09:49:18;102375.02;;;7.85;47.02
44351;BME280;62766;62.622;17.912;2023-04-07T09:51:56;102370.30;;;7.80;47.21
44351;BME280;62766;62.622;17.912;2023-04-07T09:54:34;102368.52;;;7.78;47.46
44351;BME280;62766;62.622;17.912;2023-04-07T09:57:04;102368.02;;;7.78;47.76
44351;BME280;62766;62.622;17.912;2023-04-07T09:59:35;102368.00;;;7.90;47.29
44351;BME280;62766;62.622;17.912;2023-04-07T10:03:24;102371.64;;;7.90;47.10
44351;BME280;62766;62.622;17.912;2023-04-07T10:05:53;102370.89;;;7.84;47.27
44351;BME280;62766;62.622;17.912;2023-04-07T10:08:22;102368.55;;;7.86;47.08
44351;BME280;62766;62.622;17.912;2023-04-07T10:10:50;102368.51;;;7.91;46.55
44351;BME280;62766;62.622;17.912;2023-04-07T10:13:18;102367.24;;;8.07;46.62
44351;BME280;62766;62.622;17.912;2023-04-07T10:15:48;102365.17;;;8.02;46.55
44351;BME280;62766;62.622;17.912;2023-04-07T10:18:17;102356.70;;;8.10;46.03
44351;BME280;62766;62.622;17.912;2023-04-07T10:20:48;102361.52;;;8.28;45.55
44351;BME280;62766;62.622;17.912;2023-04-07T10:23:20;102361.55;;;8.22;45.66
44351;BME280;62766;62.622;17.912;2023-04-07T10:25:53;102359.49;;;8.33;45.63
44351;BME280;62766;62.622;17.912;2023-04-07T10:28:27;102362.59;;;8.42;45.10
44351;BME280;62766;62.622;17.912;2023-04-07T10:30:58;102366.03;;;8.35;44.93
44351;BME280;62766;62.622;17.912;2023-04-07T10:33:44;102360.33;;;8.24;45.05
44351;BME280;62766;62.622;17.912;2023-04-07T10:36:14;102357.34;;;8.35;45.06
44351;BME280;62766;62.622;17.912;2023-04-07T10:39:18;102361.91;;;8.19;44.82
44351;BME280;62766;62.622;17.912;2023-04-07T10:41:47;102363.10;;;8.18;44.97
44351;BME280;62766;62.622;17.912;2023-04-07T10:44:47;102364.95;;;8.11;45.21
44351;BME280;62766;62.622;17.912;2023-04-07T10:47:17;102363.78;;;8.23;45.27
44351;BME280;62766;62.622;17.912;2023-04-07T10:50:19;102363.32;;;8.36;45.34
44351;BME280;62766;62.622;17.912;2023-04-07T10:53:01;102359.41;;;8.54;44.91
44351;BME280;62766;62.622;17.912;2023-04-07T10:55:35;102360.22;;;8.65;44.79
44351;BME280;62766;62.622;17.912;2023-04-07T10:58:13;102355.12;;;8.78;44.28
44351;BME280;62766;62.622;17.912;2023-04-07T11:01:17;102353.81;;;8.92;43.49
44351;BME280;62766;62.622;17.912;2023-04-07T11:03:58;102353.40;;;8.91;43.27
44351;BME280;62766;62.622;17.912;2023-04-07T11:06:27;102345.41;;;9.13;42.78
44351;BME280;62766;62.622;17.912;2023-04-07T11:08:55;102353.39;;;9.04;42.73
44351;BME280;62766;62.622;17.912;2023-04-07T11:11:40;102357.11;;;8.95;42.55
44351;BME280;62766;62.622;17.912;2023-04-07T11:14:08;102361.82;;;8.89;42.80
44351;BME280;62766;62.622;17.912;2023-04-07T11:16:39;102360.25;;;8.71;42.94
44351;BME280;62766;62.622;17.912;2023-04-07T11:19:08;102367.18;;;8.73;42.77
44351;BME280;62766;62.622;17.912;2023-04-07T11:21:36;102370.41;;;8.70;42.74
44351;BME280;62766;62.622;17.912;2023-04-07T11:24:05;102379.73;;;8.50;42.85
44351;BME280;62766;62.622;17.912;2023-04-07T11:26:38;102373.59;;;8.64;42.67
44351;BME280;62766;62.622;17.912;2023-04-07T11:29:07;102376.57;;;8.65;43.02
44351;BME280;62766;62.622;17.912;2023-04-07T11:31:35;102370.26;;;8.78;42.96
44351;BME280;62766;62.622;17.912;2023-04-07T11:34:04;102374.68;;;9.02;42.86
44351;BME280;62766;62.622;17.912;2023-04-07T11:36:33;102372.83;;;9.19;42.79
44351;BME280;62766;62.622;17.912;2023-04-07T11:39:02;102373.99;;;9.28;42.72
44351;BME280;62766;62.622;17.912;2023-04-07T11:41:31;102376.21;;;9.54;42.50
44351;BME280;62766;62.622;17.912;2023-04-07T11:44:05;102381.51;;;9.55;42.18
44351;BME280;62766;62.622;17.912;2023-04-07T11:46:34;102381.85;;;9.61;42.03
44351;BME280;62766;62.622;17.912;2023-04-07T11:49:09;102381.72;;;9.75;42.31
44351;BME280;62766;62.622;17.912;2023-04-07T11:51:39;102381.27;;;9.90;42.16
44351;BME280;62766;62.622;17.912;2023-04-07T11:54:09;102381.39;;;10.14;41.88
44351;BME280;62766;62.622;17.912;2023-04-07T11:56:42;102382.85;;;10.31;41.72
44351;BME280;62766;62.622;17.912;2023-04-07T11:59:20;102383.78;;;10.32;42.30
44351;BME280;62766;62.622;17.912;2023-04-07T12:01:49;102385.28;;;10.45;41.52
44351;BME280;62766;62.622;17.912;2023-04-07T12:04:19;102391.30;;;10.53;41.38
44351;BME280;62766;62.622;17.912;2023-04-07T12:06:47;102383.36;;;10.41;41.45
44351;BME280;62766;62.622;17.912;2023-04-07T12:09:32;102387.72;;;10.68;41.57
44351;BME280;62766;62.622;17.912;2023-04-07T12:12:02;102396.67;;;10.88;41.05
44351;BME280;62766;62.622;17.912;2023-04-07T12:14:31;102397.06;;;11.23;40.72
44351;BME280;62766;62.622;17.912;2023-04-07T12:16:59;102385.24;;;11.59;39.92
44351;BME280;62766;62.622;17.912;2023-04-07T12:19:30;102384.61;;;11.81;39.97
44351;BME280;62766;62.622;17.912;2023-04-07T12:21:59;102384.44;;;11.71;39.58
44351;BME280;62766;62.622;17.912;2023-04-07T12:24:28;102386.08;;;11.07;39.60
44351;BME280;62766;62.622;17.912;2023-04-07T12:26:56;102396.35;;;10.67;40.19
44351;BME280;62766;62.622;17.912;2023-04-07T12:29:25;102410.88;;;10.06;41.14
44351;BME280;62766;62.622;17.912;2023-04-07T12:31:53;102413.81;;;9.79;42.06
44351;BME280;62766;62.622;17.912;2023-04-07T12:34:21;102407.37;;;9.64;42.66
44351;BME280;62766;62.622;17.912;2023-04-07T12:36:49;102405.79;;;9.40;43.25
44351;BME280;62766;62.622;17.912;2023-04-07T12:39:18;102398.72;;;9.32;43.39
44351;BME280;62766;62.622;17.912;2023-04-07T12:41:46;102392.30;;;8.92;43.81
44351;BME280;62766;62.622;17.912;2023-04-07T12:44:14;102390.58;;;8.71;44.42
44351;BME280;62766;62.622;17.912;2023-04-07T12:46:42;102391.84;;;8.32;45.29
44351;BME280;62766;62.622;17.912;2023-04-07T12:49:11;102389.48;;;8.32;45.85
44351;BME280;62766;62.622;17.912;2023-04-07T12:51:44;102393.02;;;8.24;46.11
44351;BME280;62766;62.622;17.912;2023-04-07T12:54:13;102397.57;;;8.22;46.41
44351;BME280;62766;62.622;17.912;2023-04-07T12:56:41;102398.19;;;7.94;46.73
44351;BME280;62766;62.622;17.912;2023-04-07T12:59:09;102394.36;;;7.96;46.88
44351;BME280;62766;62.622;17.912;2023-04-07T13:01:38;102387.67;;;7.96;46.69
44351;BME280;62766;62.622;17.912;2023-04-07T13:04:08;102382.37;;;8.51;46.51
44351;BME280;62766;62.622;17.912;2023-04-07T13:06:36;102384.27;;;8.74;45.37